Time;durP1;ratioP1;P1;durP2;ratioP2;P2;SDS_P1;SDS_P2;PMS_P1;PMS_P2;Temp;Humidity;BMP_temperature;BMP_pressure;BME280_temperature;BME280_humidity;BME280_pressure;Samples;Min_cycle;Max_cycle;Signal;HPM_P1;HPM_P2
2023/12/09 00:01:01;;;;;;;96.23;38.37;;;-2.00;99.90;-3.10;100475;;;;567265;249;24097;-80
2023/12/09 00:03:29;;;;;;;98.33;37.27;;;-2.00;99.90;-3.10;100480;;;;567238;249;24071;-80
2023/12/09 00:05:58;;;;;;;106.60;39.17;;;-2.00;99.90;-3.10;100480;;;;567090;249;24127;-84
2023/12/09 00:08:25;;;;;;;111.80;36.07;;;-2.10;99.90;-3.10;100475;;;;567205;244;24078;-78
2023/12/09 00:10:53;;;;;;;97.80;37.40;;;-1.90;99.90;-3.10;100479;;;;567534;249;24123;-83
2023/12/09 00:13:21;;;;;;;106.50;41.30;;;-1.90;99.90;-3.10;100483;;;;567255;249;24084;-80
2023/12/09 00:15:49;;;;;;;100.83;39.93;;;-1.90;99.90;-3.10;100482;;;;568916;248;24076;-80
2023/12/09 00:18:17;;;;;;;100.00;38.57;;;-1.90;99.90;-3.10;100480;;;;568522;248;24062;-83
2023/12/09 00:20:45;;;;;;;100.27;36.60;;;-2.00;99.90;-3.10;100475;;;;568271;248;24056;-80
2023/12/09 00:23:13;;;;;;;99.90;36.23;;;-2.00;99.90;-3.10;100471;;;;568162;248;24053;-80
2023/12/09 00:25:41;;;;;;;111.47;38.60;;;-2.00;99.90;-3.10;100468;;;;568136;248;24043;-81
2023/12/09 00:28:09;;;;;;;109.73;40.03;;;-2.00;99.90;-3.20;100470;;;;568092;248;24067;-77
2023/12/09 00:30:37;;;;;;;95.93;37.07;;;-2.00;99.90;-3.10;100478;;;;568131;248;24066;-77
2023/12/09 00:33:05;;;;;;;97.03;37.07;;;-2.00;99.90;-3.10;100470;;;;567877;249;24093;-77
2023/12/09 00:35:33;;;;;;;98.97;38.07;;;-1.90;99.90;-3.10;100470;;;;563473;249;24095;-79
2023/12/09 00:38:01;;;;;;;107.10;41.40;;;-2.00;99.90;-3.10;100461;;;;563597;249;24105;-82
2023/12/09 00:40:29;;;;;;;116.20;42.80;;;-2.00;99.90;-3.10;100456;;;;577865;246;24036;-78
2023/12/09 00:42:57;;;;;;;106.03;41.10;;;-1.90;99.90;-3.10;100454;;;;567819;249;24031;-76
2023/12/09 00:45:25;;;;;;;106.80;39.80;;;-2.00;99.90;-3.10;100464;;;;567427;249;24066;-76
2023/12/09 00:47:52;;;;;;;122.50;43.57;;;-2.00;99.90;-3.10;100462;;;;567535;249;24114;-77
2023/12/09 00:50:20;;;;;;;105.23;39.43;;;-2.00;99.90;-3.10;100463;;;;577369;246;24103;-77
2023/12/09 00:52:48;;;;;;;110.43;36.40;;;-2.00;99.90;-3.00;100460;;;;567136;249;24086;-76
2023/12/09 00:55:16;;;;;;;97.30;39.97;;;-1.90;99.90;-3.00;100460;;;;567236;249;25096;-77
2023/12/09 00:57:44;;;;;;;122.40;42.37;;;-1.90;99.90;-3.00;100452;;;;563028;249;24079;-78
2023/12/09 01:00:15;;;;;;;112.57;40.80;;;-1.90;99.90;-3.00;100445;;;;567268;249;24088;-77
2023/12/09 01:02:40;;;;;;;117.40;42.23;;;-1.90;99.90;-3.00;100449;;;;577101;249;24132;-77
2023/12/09 01:05:09;;;;;;;109.40;40.80;;;-1.80;99.90;-3.00;100437;;;;567058;249;24067;-77
2023/12/09 01:07:36;;;;;;;107.77;42.77;;;-1.90;99.90;-3.00;100439;;;;577263;246;24141;-78
2023/12/09 01:10:05;;;;;;;103.73;41.77;;;-1.80;99.90;-3.00;100444;;;;567127;249;24076;-77
2023/12/09 01:12:33;;;;;;;108.33;42.80;;;-1.90;99.90;-3.00;100444;;;;577538;246;24054;-77
2023/12/09 01:15:01;;;;;;;101.20;41.03;;;-1.90;99.90;-3.00;100439;;;;567194;249;24064;-78
2023/12/09 01:17:29;;;;;;;105.67;42.47;;;-1.80;99.90;-3.00;100441;;;;567272;249;24055;-76
2023/12/09 01:19:57;;;;;;;89.87;36.57;;;-1.80;99.90;-2.90;100433;;;;567191;249;24060;-77
2023/12/09 01:22:24;;;;;;;104.17;41.77;;;-1.80;99.90;-2.90;100433;;;;567151;249;24061;-77
2023/12/09 01:24:52;;;;;;;116.18;52.95;;;-1.80;99.90;-2.90;100436;;;;562322;249;35205;-78
2023/12/09 01:27:20;;;;;;;85.90;34.50;;;-1.80;99.90;-2.90;100432;;;;568542;248;24050;-77
2023/12/09 01:29:48;;;;;;;114.62;50.42;;;-1.80;99.90;-2.90;100432;;;;563338;248;35211;-79
2023/12/09 01:32:17;;;;;;;65.87;26.63;;;-1.70;99.90;-2.90;100429;;;;567956;248;24052;-77
2023/12/09 01:34:46;;;;;;;93.60;39.30;;;-1.70;99.90;-2.90;100428;;;;567786;248;24121;-77
2023/12/09 01:37:13;;;;;;;91.73;39.10;;;-1.70;99.90;-2.90;100431;;;;567730;248;24058;-78
2023/12/09 01:39:41;;;;;;;90.20;38.40;;;-1.70;99.90;-2.90;100428;;;;567605;248;24116;-78
2023/12/09 01:42:09;;;;;;;96.30;38.83;;;-1.70;99.90;-2.90;100444;;;;567831;248;24081;-78
2023/12/09 01:44:37;;;;;;;84.13;37.20;;;-1.80;99.90;-2.90;100442;;;;567540;249;24175;-78
2023/12/09 01:47:06;;;;;;;84.93;37.53;;;-1.70;99.90;-2.90;100432;;;;567842;249;24070;-77
2023/12/09 01:49:38;;;;;;;95.33;38.93;;;-1.80;99.90;-2.90;100425;;;;567411;249;24077;-77
2023/12/09 01:52:02;;;;;;;92.73;38.03;;;-1.70;99.90;-2.90;100426;;;;570908;249;24101;-77
2023/12/09 01:54:30;;;;;;;101.28;48.17;;;-1.60;99.90;-2.90;100421;;;;562481;249;35169;-77
2023/12/09 01:57:00;;;;;;;79.50;34.93;;;-1.70;99.90;-2.90;100418;;;;566870;249;24047;-76
2023/12/09 01:59:26;;;;;;;87.67;40.13;;;-1.70;99.90;-2.90;100412;;;;567530;249;24078;-77
2023/12/09 02:01:53;;;;;;;91.53;37.30;;;-1.70;99.90;-2.80;100408;;;;567233;249;24099;-78
2023/12/09 02:04:21;;;;;;;85.13;38.80;;;-1.70;99.90;-2.80;100410;;;;566717;249;24106;-78
2023/12/09 02:06:49;;;;;;;87.10;37.57;;;-1.70;99.90;-2.80;100415;;;;567496;249;24099;-77
2023/12/09 02:09:18;;;;;;;85.80;36.83;;;-1.70;99.90;-2.80;100406;;;;567359;249;24094;-76
2023/12/09 02:12:06;;;;;;;91.73;39.23;;;-1.70;99.90;-2.90;100407;;;;567454;249;24105;-78
2023/12/09 02:14:37;;;;;;;90.13;38.53;;;-1.70;99.90;-2.90;100409;;;;567419;249;24135;-76
2023/12/09 02:17:13;;;;;;;87.27;35.43;;;-1.70;99.90;-2.90;100412;;;;567133;249;24079;-76
2023/12/09 02:19:41;;;;;;;88.00;36.93;;;-1.70;99.90;-2.90;100409;;;;567379;249;24074;-77
2023/12/09 02:22:09;;;;;;;87.40;36.13;;;-1.90;99.90;-2.90;100393;;;;567493;249;25090;-76
2023/12/09 02:24:37;;;;;;;107.20;49.35;;;-1.80;99.90;-2.90;100393;;;;562210;249;35171;-76
2023/12/09 02:27:08;;;;;;;88.57;34.87;;;-1.80;99.90;-2.90;100381;;;;563300;249;24066;-77
2023/12/09 02:29:36;;;;;;;92.43;37.53;;;-1.80;99.90;-2.90;100383;;;;567398;249;25103;-76
2023/12/09 02:32:04;;;;;;;98.83;38.00;;;-1.80;99.90;-2.90;100387;;;;567112;249;24107;-76
2023/12/09 02:34:33;;;;;;;87.60;36.13;;;-1.80;99.90;-3.00;100377;;;;567461;249;24075;-76
2023/12/09 02:37:02;;;;;;;90.53;36.57;;;-1.80;99.90;-3.00;100371;;;;567475;246;24159;-76
2023/12/09 02:39:30;;;;;;;89.57;35.73;;;-1.90;99.90;-3.00;100370;;;;568857;248;24058;-77
2023/12/09 02:41:59;;;;;;;107.07;38.70;;;-1.80;99.90;-3.00;100364;;;;564393;248;24064;-76
2023/12/09 02:44:27;;;;;;;95.57;36.67;;;-1.80;99.90;-3.00;100366;;;;567810;248;24118;-75
2023/12/09 02:46:55;;;;;;;101.23;36.40;;;-1.70;99.90;-3.00;100364;;;;568169;248;24128;-76
2023/12/09 02:49:26;;;;;;;89.13;33.80;;;-1.80;99.90;-2.90;100355;;;;567731;248;24176;-76
2023/12/09 02:51:51;;;;;;;101.00;37.93;;;-1.80;99.90;-2.90;100354;;;;567969;248;24151;-76
2023/12/09 02:54:19;;;;;;;118.95;50.83;;;-1.90;99.90;-3.00;100351;;;;563097;248;35128;-78
2023/12/09 02:56:47;;;;;;;99.03;36.00;;;-1.60;99.90;-3.00;100347;;;;567810;249;24050;-77
2023/12/09 02:59:15;;;;;;;107.30;40.50;;;-1.80;99.90;-3.00;100347;;;;567788;249;24098;-76
2023/12/09 03:01:43;;;;;;;99.33;38.90;;;-1.90;99.90;-3.00;100335;;;;567829;249;24057;-77
2023/12/09 03:04:12;;;;;;;104.87;39.93;;;-1.90;99.90;-3.00;100342;;;;567777;249;24086;-78
2023/12/09 03:06:40;;;;;;;99.43;37.60;;;-1.90;99.90;-3.00;100338;;;;567835;249;25097;-78
2023/12/09 03:09:08;;;;;;;83.70;33.77;;;-2.00;99.90;-3.00;100348;;;;567638;249;24066;-77
2023/12/09 03:11:37;;;;;;;108.70;40.50;;;-2.00;99.90;-3.00;100351;;;;567446;249;24054;-77
2023/12/09 03:14:05;;;;;;;102.73;37.37;;;-2.00;99.90;-3.10;100349;;;;567342;249;24169;-77
2023/12/09 03:16:33;;;;;;;99.93;38.10;;;-2.10;99.90;-3.10;100357;;;;567093;249;24056;-76
2023/12/09 03:19:01;;;;;;;105.50;39.43;;;-2.20;99.90;-3.10;100347;;;;567347;249;24126;-77
2023/12/09 03:21:29;;;;;;;105.03;38.40;;;-1.90;99.90;-3.10;100345;;;;567091;249;24070;-78
2023/12/09 03:23:57;;;;;;;104.70;39.33;;;-1.80;99.90;-3.10;100341;;;;567068;249;24069;-77
2023/12/09 03:26:25;;;;;;;89.93;33.80;;;-1.70;99.90;-3.00;100337;;;;567163;249;24080;-78
2023/12/09 03:28:53;;;;;;;92.00;36.10;;;-1.90;99.90;-3.10;100334;;;;567117;249;24075;-77
2023/12/09 03:31:21;;;;;;;89.30;35.97;;;-2.00;99.90;-3.10;100326;;;;567452;249;24044;-77
2023/12/09 03:33:49;;;;;;;87.83;32.50;;;-1.90;99.90;-3.00;100338;;;;567108;249;24060;-76
2023/12/09 03:36:17;;;;;;;85.67;35.60;;;-1.90;99.90;-3.00;100332;;;;567573;249;24081;-76
2023/12/09 03:38:45;;;;;;;90.90;35.43;;;-1.80;99.90;-3.00;100336;;;;567222;249;24113;-77
2023/12/09 03:41:13;;;;;;;92.13;36.60;;;-1.90;99.90;-3.00;100344;;;;567180;249;24080;-76
2023/12/09 03:43:41;;;;;;;88.83;35.63;;;-1.90;99.90;-3.00;100342;;;;567210;249;24055;-76
2023/12/09 03:46:09;;;;;;;100.73;36.80;;;-1.80;99.90;-3.00;100345;;;;567134;249;24066;-76
2023/12/09 03:48:37;;;;;;;96.90;37.97;;;-1.90;99.90;-3.10;100349;;;;567859;247;24062;-76
2023/12/09 03:51:08;;;;;;;109.17;38.43;;;-1.90;99.90;-3.10;100343;;;;568821;248;24113;-76
2023/12/09 03:53:33;;;;;;;97.00;37.77;;;-1.90;99.90;-3.00;100346;;;;577963;248;24068;-77
2023/12/09 03:56:03;;;;;;;92.30;35.53;;;-1.90;99.90;-3.00;100348;;;;567923;248;25107;-76
2023/12/09 03:58:30;;;;;;;91.07;37.23;;;-1.90;99.90;-3.00;100330;;;;567750;248;24055;-77
2023/12/09 04:00:58;;;;;;;97.13;36.87;;;-1.90;99.90;-3.00;100315;;;;567629;248;24077;-77
2023/12/09 04:03:27;;;;;;;83.93;32.37;;;-1.90;99.90;-3.00;100321;;;;567770;248;24097;-81
2023/12/09 04:05:54;;;;;;;101.70;40.37;;;-1.90;99.90;-3.00;100326;;;;567824;248;25192;-83
2023/12/09 04:08:22;;;;;;;99.87;37.77;;;-1.90;99.90;-3.00;100337;;;;577510;244;24061;-81
2023/12/09 04:10:50;;;;;;;120.13;41.30;;;-1.80;99.90;-3.00;100320;;;;567899;249;24066;-83
2023/12/09 04:13:18;;;;;;;101.43;35.03;;;-1.80;99.90;-3.00;100325;;;;567780;249;24105;-80
2023/12/09 04:15:47;;;;;;;98.00;38.00;;;-1.80;99.90;-3.00;100322;;;;567842;249;24091;-83
2023/12/09 04:18:14;;;;;;;98.90;37.97;;;-1.80;99.90;-3.00;100325;;;;577410;249;24052;-79
2023/12/09 04:20:42;;;;;;;105.17;38.97;;;-1.80;99.90;-3.00;100331;;;;567268;249;24106;-77
2023/12/09 04:23:10;;;;;;;105.27;36.67;;;-1.80;99.90;-3.00;100331;;;;567797;249;24069;-76
2023/12/09 04:25:38;;;;;;;100.73;38.30;;;-1.80;99.90;-3.00;100330;;;;567603;249;24071;-77
2023/12/09 04:28:06;;;;;;;107.80;39.20;;;-1.80;99.90;-2.90;100334;;;;567539;249;25199;-77
2023/12/09 04:30:34;;;;;;;118.20;49.83;;;-1.70;99.90;-2.90;100322;;;;562587;249;35187;-77
2023/12/09 04:33:01;;;;;;;88.17;33.47;;;-1.80;99.90;-2.90;100316;;;;567489;249;25106;-77
2023/12/09 04:35:29;;;;;;;100.30;40.07;;;-1.70;99.90;-2.90;100315;;;;567607;249;24063;-77
2023/12/09 04:37:57;;;;;;;92.20;37.07;;;-1.70;99.90;-2.80;100322;;;;567556;249;25097;-78
2023/12/09 04:40:26;;;;;;;103.30;38.57;;;-1.60;99.90;-2.80;100331;;;;567497;249;24064;-76
2023/12/09 04:42:55;;;;;;;96.57;38.40;;;-1.60;99.90;-2.80;100320;;;;567494;249;25094;-76
2023/12/09 04:45:23;;;;;;;106.00;39.77;;;-1.60;99.90;-2.80;100330;;;;567405;249;24052;-75
2023/12/09 04:47:51;;;;;;;95.57;35.53;;;-1.60;99.90;-2.80;100319;;;;567496;249;24085;-77
2023/12/09 04:50:18;;;;;;;102.03;37.17;;;-1.60;99.90;-2.70;100318;;;;567307;249;24074;-76
2023/12/09 04:52:46;;;;;;;97.90;36.27;;;-1.60;99.90;-2.70;100320;;;;567150;249;24156;-76
2023/12/09 04:55:14;;;;;;;116.62;48.03;;;-1.60;99.90;-2.80;100313;;;;562659;249;35146;-78
2023/12/09 04:57:42;;;;;;;88.23;33.43;;;-1.60;99.90;-2.70;100320;;;;567499;249;24052;-77
2023/12/09 05:00:13;;;;;;;94.10;38.00;;;-1.60;99.90;-2.70;100326;;;;567798;246;24114;-77
2023/12/09 05:02:38;;;;;;;105.30;38.43;;;-1.60;99.90;-2.80;100315;;;;579024;245;24067;-77
2023/12/09 05:05:06;;;;;;;107.23;37.90;;;-1.60;99.90;-2.70;100310;;;;568470;248;24086;-83
2023/12/09 05:07:34;;;;;;;100.90;35.10;;;-1.60;99.90;-2.80;100311;;;;578469;246;24073;-81
2023/12/09 05:10:03;;;;;;;94.70;36.53;;;-1.60;99.90;-2.80;100310;;;;567897;248;24121;-78
2023/12/09 05:12:30;;;;;;;101.00;37.67;;;-1.60;99.90;-2.70;100304;;;;568042;248;24062;-78
2023/12/09 05:14:59;;;;;;;106.63;37.87;;;-1.60;99.90;-2.80;100298;;;;568067;248;24070;-83
2023/12/09 05:17:26;;;;;;;98.93;35.27;;;-1.60;99.90;-2.80;100299;;;;568084;248;24090;-81
2023/12/09 05:19:54;;;;;;;90.53;35.07;;;-1.60;99.90;-2.80;100301;;;;567562;249;24063;-84
2023/12/09 05:22:22;;;;;;;94.50;35.00;;;-1.60;99.90;-2.80;100302;;;;567353;249;24056;-82
2023/12/09 05:24:51;;;;;;;87.27;33.97;;;-1.60;99.90;-2.80;100307;;;;567949;246;24058;-80
2023/12/09 05:27:18;;;;;;;102.53;35.53;;;-1.60;99.90;-2.80;100299;;;;567294;249;25120;-78
2023/12/09 05:29:46;;;;;;;90.20;32.40;;;-1.60;99.90;-2.80;100301;;;;567814;249;24056;-78
2023/12/09 05:32:14;;;;;;;87.93;33.63;;;-1.60;99.90;-2.80;100300;;;;567844;249;24070;-77
2023/12/09 05:34:42;;;;;;;101.13;36.73;;;-1.60;99.90;-2.80;100303;;;;567823;249;24132;-76
2023/12/09 05:37:10;;;;;;;98.27;36.37;;;-1.60;99.90;-2.80;100302;;;;567568;249;24058;-77
2023/12/09 05:39:38;;;;;;;102.90;35.03;;;-1.60;99.90;-2.80;100296;;;;567469;248;24121;-76
2023/12/09 05:42:06;;;;;;;88.10;32.67;;;-1.60;99.90;-2.80;100299;;;;567486;249;24092;-77
2023/12/09 05:44:34;;;;;;;96.13;35.90;;;-1.60;99.90;-2.80;100292;;;;567568;249;24082;-82
2023/12/09 05:47:03;;;;;;;102.03;35.20;;;-1.60;99.90;-2.80;100292;;;;567662;249;24059;-83
2023/12/09 05:49:31;;;;;;;104.63;35.93;;;-1.70;99.90;-2.80;100286;;;;567229;249;24114;-77
2023/12/09 05:51:59;;;;;;;102.60;34.90;;;-1.70;99.90;-2.80;100279;;;;567117;249;24097;-77
2023/12/09 05:54:31;;;;;;;93.60;35.57;;;-1.60;99.90;-2.80;100288;;;;567677;249;24110;-76
2023/12/09 05:56:55;;;;;;;96.33;33.83;;;-1.70;99.90;-2.80;100292;;;;566969;249;24104;-79
2023/12/09 05:59:23;;;;;;;97.13;34.70;;;-1.60;99.90;-2.80;100285;;;;567682;249;24053;-80
2023/12/09 06:01:50;;;;;;;105.17;37.40;;;-1.70;99.90;-2.80;100290;;;;567547;249;24103;-81
2023/12/09 06:04:18;;;;;;;97.50;34.13;;;-1.80;99.90;-2.90;100301;;;;567575;249;24161;-79
2023/12/09 06:06:46;;;;;;;105.53;35.67;;;-1.70;99.90;-2.90;100307;;;;567553;249;25078;-80
2023/12/09 06:09:14;;;;;;;103.57;34.50;;;-1.70;99.90;-2.90;100313;;;;567353;249;24146;-83
2023/12/09 06:11:42;;;;;;;104.20;32.40;;;-1.80;99.90;-2.80;100313;;;;567778;247;25110;-81
2023/12/09 06:14:10;;;;;;;95.43;33.40;;;-1.70;99.90;-2.80;100306;;;;568858;248;24065;-83
2023/12/09 06:16:38;;;;;;;101.07;33.97;;;-1.70;99.90;-2.80;100299;;;;568499;248;24095;-84
2023/12/09 06:19:06;;;;;;;108.60;35.87;;;-1.70;99.90;-2.80;100296;;;;567948;248;24070;-81
2023/12/09 06:21:34;;;;;;;115.40;44.08;;;-1.70;99.90;-2.80;100286;;;;562903;248;35206;-82
2023/12/09 06:24:02;;;;;;;93.37;26.73;;;-1.60;99.90;-2.80;100289;;;;568032;248;24036;-80
2023/12/09 06:26:30;;;;;;;110.00;37.83;;;-1.60;99.90;-2.80;100286;;;;567655;248;24082;-81
2023/12/09 06:28:58;;;;;;;107.53;37.03;;;-1.60;99.90;-2.80;100292;;;;567771;248;24093;-82
2023/12/09 06:31:26;;;;;;;103.87;33.77;;;-1.60;99.90;-2.70;100291;;;;567507;249;25090;-81
2023/12/09 06:33:54;;;;;;;126.07;45.22;;;-1.60;99.90;-2.80;100287;;;;562882;249;35144;-77
2023/12/09 06:36:22;;;;;;;82.93;28.23;;;-1.60;99.90;-2.80;100291;;;;567462;249;24055;-79
2023/12/09 06:38:50;;;;;;;108.20;35.60;;;-1.60;99.90;-2.70;100296;;;;567310;249;24154;-78
2023/12/09 06:41:18;;;;;;;106.00;33.47;;;-1.70;99.90;-2.70;100288;;;;567474;249;24061;-77
2023/12/09 06:43:46;;;;;;;98.40;33.17;;;-1.60;99.90;-2.70;100293;;;;577440;246;24102;-77
2023/12/09 06:46:14;;;;;;;109.10;33.97;;;-1.60;99.90;-2.70;100288;;;;567533;249;24055;-76
2023/12/09 06:48:42;;;;;;;99.30;33.53;;;-1.60;99.90;-2.70;100285;;;;567269;249;24059;-77
2023/12/09 06:51:16;;;;;;;103.77;35.83;;;-1.60;99.90;-2.70;100294;;;;567496;249;24071;-78
2023/12/09 06:53:44;;;;;;;106.23;34.00;;;-1.50;99.90;-2.70;100295;;;;567582;249;24108;-77
2023/12/09 06:56:21;;;;;;;91.67;33.93;;;-1.50;99.90;-2.70;100289;;;;567601;249;25130;-77
2023/12/09 06:58:50;;;;;;;109.67;36.33;;;-1.50;99.90;-2.70;100290;;;;567187;249;24094;-79
2023/12/09 07:01:24;;;;;;;102.60;33.70;;;-1.90;99.90;-2.70;100293;;;;567087;249;24056;-78
2023/12/09 07:03:52;;;;;;;103.53;35.13;;;-1.50;99.90;-2.70;100276;;;;570493;249;24059;-83
2023/12/09 07:06:23;;;;;;;105.20;35.60;;;-1.50;99.90;-2.70;100269;;;;567146;249;24083;-77
2023/12/09 07:08:55;;;;;;;110.13;35.10;;;-1.60;99.90;-2.70;100286;;;;567224;249;24062;-77
2023/12/09 07:11:20;;;;;;;92.03;33.77;;;-1.50;99.90;-2.70;100279;;;;566815;249;24107;-78
2023/12/09 07:13:48;;;;;;;97.67;34.63;;;-1.50;99.90;-2.70;100285;;;;567267;249;24051;-81
2023/12/09 07:16:19;;;;;;;106.03;35.23;;;-1.70;99.90;-2.70;100275;;;;563035;249;24060;-78
2023/12/09 07:18:46;;;;;;;96.60;34.77;;;-1.40;99.90;-2.70;100279;;;;566698;249;24059;-78
2023/12/09 07:21:11;;;;;;;109.90;35.10;;;-1.50;99.90;-2.70;100283;;;;566924;249;24115;-81
2023/12/09 07:23:40;;;;;;;112.10;34.97;;;-1.50;99.90;-2.70;100277;;;;568028;248;24076;-83
2023/12/09 07:26:11;;;;;;;99.73;34.33;;;-1.50;99.90;-2.70;100269;;;;568584;248;24151;-83
2023/12/09 07:28:36;;;;;;;112.23;35.70;;;-1.50;99.90;-2.60;100272;;;;567919;248;24084;-83
2023/12/09 07:31:04;;;;;;;100.37;35.77;;;-1.40;99.90;-2.70;100264;;;;568320;248;24079;-82
2023/12/09 07:33:32;;;;;;;107.20;35.90;;;-1.50;99.90;-2.70;100262;;;;577882;246;24040;-77
2023/12/09 07:36:00;;;;;;;101.47;33.93;;;-1.50;99.90;-2.70;100266;;;;567238;248;24114;-77
2023/12/09 07:38:28;;;;;;;96.80;29.87;;;-1.50;99.90;-2.60;100269;;;;567552;248;24056;-77
2023/12/09 07:40:56;;;;;;;97.17;32.20;;;-1.50;99.90;-2.60;100265;;;;567709;248;24057;-78
2023/12/09 07:43:23;;;;;;;97.77;33.43;;;-1.50;99.90;-2.60;100266;;;;567549;249;24063;-77
2023/12/09 07:45:51;;;;;;;98.90;33.40;;;-1.50;99.90;-2.60;100261;;;;567469;249;24046;-77
2023/12/09 07:48:19;;;;;;;100.40;34.60;;;-1.40;99.90;-2.50;100261;;;;567417;249;24114;-81
2023/12/09 07:50:47;;;;;;;112.43;34.13;;;-1.30;99.90;-2.50;100264;;;;577948;246;24076;-80
2023/12/09 07:53:16;;;;;;;97.50;33.80;;;-1.40;99.90;-2.50;100267;;;;567700;249;24078;-77
2023/12/09 07:55:45;;;;;;;113.67;35.73;;;-1.30;99.90;-2.50;100271;;;;567842;249;24058;-81
2023/12/09 07:58:13;;;;;;;117.27;36.30;;;-1.30;99.90;-2.50;100254;;;;567856;249;24058;-80
2023/12/09 08:00:41;;;;;;;103.80;35.23;;;-1.40;99.90;-2.40;100260;;;;567390;249;24060;-77
2023/12/09 08:03:09;;;;;;;96.27;34.13;;;-1.30;99.90;-2.40;100256;;;;566973;249;24066;-77
2023/12/09 08:05:40;;;;;;;106.13;33.77;;;-1.40;99.90;-2.40;100255;;;;567144;249;24066;-80
2023/12/09 08:08:07;;;;;;;91.23;32.57;;;-1.30;99.90;-2.40;100258;;;;567324;249;24067;-78
2023/12/09 08:10:35;;;;;;;98.97;32.77;;;-1.70;99.90;-2.30;100259;;;;567116;249;24069;-79
2023/12/09 08:13:03;;;;;;;98.50;33.17;;;-1.20;99.90;-2.40;100240;;;;567299;249;24082;-82
2023/12/09 08:15:31;;;;;;;88.60;31.00;;;-1.30;99.90;-2.40;100243;;;;567196;249;24122;-81
2023/12/09 08:18:00;;;;;;;96.70;34.13;;;-1.20;99.90;-2.30;100253;;;;567126;249;24067;-78
2023/12/09 08:20:29;;;;;;;87.43;31.77;;;-1.20;99.90;-2.30;100241;;;;567549;249;24155;-78
2023/12/09 08:22:57;;;;;;;104.77;34.80;;;-1.10;99.90;-2.30;100254;;;;567513;249;25138;-77
2023/12/09 08:25:25;;;;;;;90.20;31.90;;;-0.80;99.90;-2.20;100241;;;;567470;249;24055;-76
2023/12/09 08:27:53;;;;;;;90.03;33.03;;;-1.40;99.90;-2.20;100249;;;;567720;249;24104;-76
2023/12/09 08:30:22;;;;;;;92.27;35.17;;;-1.10;99.90;-2.20;100251;;;;567324;249;24109;-77
2023/12/09 08:32:53;;;;;;;109.15;42.15;;;-1.00;99.90;-2.20;100249;;;;562194;249;35171;-78
2023/12/09 08:35:21;;;;;;;46.30;17.20;;;-1.00;99.90;-2.10;100242;;;;568190;248;24111;-80
2023/12/09 08:37:49;;;;;;;85.10;30.77;;;-1.00;99.90;-2.10;100240;;;;568500;248;25096;-77
2023/12/09 08:40:20;;;;;;;98.67;33.00;;;-1.00;99.90;-2.10;100238;;;;567949;248;24063;-80
2023/12/09 08:42:45;;;;;;;99.60;33.70;;;-0.90;99.90;-2.10;100236;;;;567249;248;24103;-79
2023/12/09 08:45:13;;;;;;;88.27;31.73;;;-0.90;99.90;-2.10;100240;;;;567675;248;24129;-78
2023/12/09 08:47:41;;;;;;;87.67;31.17;;;-0.90;99.90;-2.00;100229;;;;567727;248;24112;-81
2023/12/09 08:50:09;;;;;;;94.37;35.60;;;-0.90;99.90;-2.00;100236;;;;567227;248;24063;-79
2023/12/09 08:52:37;;;;;;;86.70;32.17;;;-0.90;99.90;-2.00;100230;;;;576741;246;24055;-81
2023/12/09 08:55:09;;;;;;;108.50;35.03;;;-0.90;99.90;-2.00;100228;;;;567646;249;24061;-79
2023/12/09 08:57:33;;;;;;;105.83;34.87;;;-0.80;99.90;-1.90;100229;;;;567858;249;24056;-82
2023/12/09 09:00:07;;;;;;;111.07;45.53;;;-0.80;99.90;-1.90;100234;;;;562882;249;35156;-81
2023/12/09 09:02:32;;;;;;;59.33;18.93;;;-0.90;99.90;-1.90;100229;;;;567036;249;24059;-79
2023/12/09 09:04:57;;;;;;;87.63;29.93;;;-0.80;99.90;-1.90;100230;;;;567770;249;24081;-78
2023/12/09 09:07:25;;;;;;;99.37;36.40;;;-0.80;99.90;-1.90;100222;;;;567527;249;24130;-77
2023/12/09 09:09:56;;;;;;;92.97;33.07;;;-0.80;99.90;-1.90;100223;;;;567391;249;24105;-78
2023/12/09 09:12:21;;;;;;;81.23;32.57;;;-0.70;99.90;-1.90;100221;;;;563049;249;24079;-81
2023/12/09 09:14:49;;;;;;;87.73;33.53;;;-0.80;99.90;-1.90;100217;;;;567553;249;24075;-79
2023/12/09 09:17:17;;;;;;;81.80;32.87;;;-0.80;99.90;-1.90;100210;;;;567560;249;24067;-77
2023/12/09 09:19:46;;;;;;;85.07;34.97;;;-0.80;99.90;-1.90;100200;;;;567671;249;25145;-83
2023/12/09 09:22:15;;;;;;;93.23;32.87;;;-0.80;99.90;-1.90;100199;;;;567194;249;24053;-78
2023/12/09 09:24:43;;;;;;;85.20;31.17;;;-0.80;99.90;-1.80;100206;;;;567279;249;24125;-80
2023/12/09 09:27:11;;;;;;;81.40;31.30;;;-0.70;99.90;-1.80;100189;;;;567086;249;24087;-79
2023/12/09 09:29:39;;;;;;;97.87;35.27;;;-0.70;99.90;-1.80;100193;;;;567287;249;24152;-78
2023/12/09 09:32:07;;;;;;;91.60;33.73;;;-0.70;99.90;-1.80;100188;;;;567516;249;25098;-78
2023/12/09 09:34:34;;;;;;;90.80;33.00;;;-0.70;99.90;-1.80;100188;;;;567575;249;25113;-82
2023/12/09 09:37:02;;;;;;;98.07;34.87;;;-0.70;99.90;-1.80;100182;;;;567518;249;24065;-80
2023/12/09 09:39:30;;;;;;;99.37;36.87;;;-0.70;99.90;-1.70;100175;;;;567501;249;24100;-77
2023/12/09 09:42:19;;;;;;;109.73;34.63;;;-0.60;99.90;-1.70;100170;;;;567474;249;25184;-78
2023/12/09 09:45:15;;;;;;;88.23;33.30;;;-0.60;99.90;-1.70;100175;;;;567524;249;25090;-81
2023/12/09 09:47:43;;;;;;;83.80;30.63;;;-0.50;99.90;-1.60;100179;;;;568383;248;24053;-80
2023/12/09 09:50:11;;;;;;;92.43;34.50;;;-0.40;99.90;-1.70;100171;;;;578737;246;25130;-77
2023/12/09 09:52:40;;;;;;;99.13;35.87;;;-0.60;99.90;-1.70;100174;;;;567878;248;24077;-80
2023/12/09 09:55:12;;;;;;;91.07;35.23;;;-0.60;99.90;-1.70;100176;;;;567912;248;24068;-79
2023/12/09 09:57:37;;;;;;;87.00;33.00;;;-0.50;99.90;-1.60;100168;;;;571044;248;24084;-79
2023/12/09 10:00:12;;;;;;;80.20;31.40;;;-0.50;99.90;-1.60;100175;;;;578050;246;24087;-78
2023/12/09 10:02:32;;;;;;;90.60;33.57;;;-0.50;99.90;-1.60;100166;;;;567193;248;24085;-77
2023/12/09 10:05:00;;;;;;;88.37;32.43;;;-0.50;99.90;-1.50;100163;;;;577134;247;24086;-79
2023/12/09 10:07:28;;;;;;;75.60;28.60;;;-0.40;99.90;-1.50;100154;;;;577855;246;24055;-80
2023/12/09 10:09:56;;;;;;;101.03;35.07;;;-0.40;99.90;-1.50;100158;;;;563432;249;24079;-78
2023/12/09 10:12:23;;;;;;;81.53;29.23;;;-0.40;99.90;-1.40;100159;;;;567540;249;25107;-77
2023/12/09 10:14:51;;;;;;;88.20;31.83;;;-0.30;99.90;-1.40;100155;;;;567422;249;24070;-78
2023/12/09 10:17:22;;;;;;;86.70;31.27;;;-0.30;99.90;-1.40;100146;;;;567393;249;24043;-77
2023/12/09 10:19:47;;;;;;;74.90;30.30;;;-0.30;99.90;-1.40;100139;;;;567132;249;24074;-79
2023/12/09 10:22:15;;;;;;;85.07;30.17;;;-0.30;99.90;-1.40;100142;;;;577811;246;24095;-80
2023/12/09 10:24:52;;;;;;;93.80;31.10;;;-1.70;99.90;-1.40;100140;;;;567531;249;24063;-75
2023/12/09 10:27:17;;;;;;;81.80;34.05;;;-0.30;99.90;-1.40;100128;;;;562477;249;35099;-77
2023/12/09 10:29:45;;;;;;;43.97;15.73;;;-0.30;99.90;-1.40;100130;;;;567354;249;25138;-76
2023/12/09 10:32:13;;;;;;;50.43;15.03;;;-0.20;99.90;-1.40;100124;;;;567494;249;24115;-77
2023/12/09 10:34:41;;;;;;;73.23;26.73;;;-0.30;99.90;-1.30;100126;;;;567063;249;24111;-78
2023/12/09 10:37:10;;;;;;;78.13;29.17;;;-0.10;99.90;-1.20;100128;;;;567136;249;25108;-77
2023/12/09 10:39:44;;;;;;;78.97;32.80;;;-0.10;99.90;-1.20;100113;;;;567065;249;24068;-78
2023/12/09 10:42:12;;;;;;;76.37;28.97;;;-0.10;99.90;-1.10;100112;;;;567091;249;24052;-77
2023/12/09 10:44:44;;;;;;;88.23;31.17;;;0.00;99.90;-1.10;100105;;;;567132;249;24059;-78
2023/12/09 10:47:08;;;;;;;95.33;34.53;;;0.00;99.90;-1.10;100103;;;;567080;249;24077;-77
2023/12/09 10:49:36;;;;;;;74.47;28.63;;;0.00;99.90;-1.10;100111;;;;567175;249;24108;-76
2023/12/09 10:52:04;;;;;;;80.33;29.73;;;-0.20;99.90;-1.20;100107;;;;566803;249;24103;-78
2023/12/09 10:54:32;;;;;;;85.57;31.50;;;-0.10;99.90;-1.20;100103;;;;577490;246;24066;-79
2023/12/09 10:57:00;;;;;;;93.43;32.53;;;-0.20;99.90;-1.20;100101;;;;567364;249;24089;-77